createdAt,value
2023-03-11T00:02:17.799Z,92.42158
2023-03-11T00:07:19.375Z,90.91677
2023-03-11T00:12:20.845Z,93.13177
2023-03-11T00:17:22.468Z,94.42567
2023-03-11T00:22:23.933Z,93.57724
2023-03-11T00:27:25.366Z,96.39979
2023-03-11T00:32:26.915Z,96.58799
2023-03-11T00:37:28.534Z,95.83051
2023-03-11T00:42:29.954Z,94.25332
2023-03-11T00:47:31.421Z,92.13134
2023-03-11T00:52:32.919Z,96.55545
2023-03-11T00:57:34.480Z,95.65686
2023-03-11T01:02:35.928Z,93.09902
2023-03-11T01:07:37.553Z,95.924
2023-03-11T01:12:39.075Z,94.78707
2023-03-11T01:17:40.722Z,93.6401
2023-03-11T01:22:42.201Z,92.43096
2023-03-11T01:27:43.708Z,96.93963
2023-03-11T01:32:45.274Z,96.71442
2023-03-11T01:37:46.768Z,96.24433
2023-03-11T01:42:48.300Z,97.901
2023-03-11T01:47:49.840Z,99.38646
2023-03-11T01:52:51.309Z,100
2023-03-11T01:57:52.902Z,100
2023-03-11T02:02:54.700Z,100
2023-03-11T02:07:56.191Z,100
2023-03-11T02:12:57.688Z,100
2023-03-11T02:17:59.140Z,100
2023-03-11T02:23:00.605Z,100
2023-03-11T02:28:02.226Z,100
2023-03-11T02:33:03.896Z,100
2023-03-11T02:38:05.362Z,99.92062
2023-03-11T02:43:06.949Z,100
2023-03-11T02:48:08.464Z,100
2023-03-11T02:53:09.920Z,100
2023-03-11T02:58:11.370Z,99.89687
2023-03-11T03:03:12.986Z,96.74283
2023-03-11T03:08:14.569Z,100
2023-03-11T03:13:16.052Z,100
2023-03-11T03:18:17.516Z,100
2023-03-11T03:23:19.138Z,100
2023-03-11T03:28:20.896Z,100
2023-03-11T03:33:22.376Z,100
2023-03-11T03:38:23.889Z,100
2023-03-11T03:43:25.394Z,100
2023-03-11T03:48:27.020Z,100
2023-03-11T03:53:28.556Z,100
2023-03-11T03:58:30.046Z,100
2023-03-11T04:03:31.746Z,100
2023-03-11T04:08:33.322Z,100
2023-03-11T04:13:34.777Z,100
2023-03-11T04:18:36.361Z,100
2023-03-11T04:23:38.045Z,100
2023-03-11T04:28:39.468Z,99.83765
2023-03-11T04:33:41.231Z,99.02808
2023-03-11T04:38:42.729Z,100
2023-03-11T04:43:44.180Z,100
2023-03-11T04:48:45.674Z,100
2023-03-11T04:53:47.177Z,99.94209
2023-03-11T04:58:48.678Z,98.53248
2023-03-11T05:03:50.291Z,99.05544
2023-03-11T05:08:51.791Z,97.75817
2023-03-11T05:13:53.379Z,97.0932
2023-03-11T05:18:54.834Z,90.27978
2023-03-11T05:23:56.350Z,89.00177
2023-03-11T05:28:57.778Z,85.95503
2023-03-11T05:33:59.254Z,83.02893
2023-03-11T05:39:00.839Z,78.57518
2023-03-11T05:44:02.493Z,77.17461
2023-03-11T05:49:04.014Z,75.47967
2023-03-11T05:54:05.551Z,73.87734
2023-03-11T05:59:06.971Z,71.10479
2023-03-11T06:04:08.785Z,69.84319
2023-03-11T06:09:10.476Z,70.43547
2023-03-11T06:14:11.907Z,65.27235
2023-03-11T06:19:13.441Z,66.54097
2023-03-11T06:24:15.059Z,61.29854
2023-03-11T06:29:16.505Z,60.97698
2023-03-11T06:34:17.986Z,55.11994
2023-03-11T06:39:19.575Z,53.86431
2023-03-11T06:44:20.994Z,57.24354
2023-03-11T06:49:22.528Z,55.62001
2023-03-11T06:54:24.027Z,55.40952
2023-03-11T06:59:25.529Z,56.29474
2023-03-11T07:04:27.106Z,54.66907
2023-03-11T07:09:28.544Z,54.97226
2023-03-11T07:14:30.054Z,54.22086
2023-03-11T07:19:31.768Z,52.87638
2023-03-11T07:24:33.229Z,52.59613
2023-03-11T07:29:34.725Z,50.73938
2023-03-11T07:34:36.203Z,52.46836
2023-03-11T07:39:37.635Z,50.89912
2023-03-11T07:44:39.378Z,51.64722
2023-03-11T07:49:40.796Z,49.97084
2023-03-11T07:54:42.380Z,50.52195
2023-03-11T07:59:43.959Z,53.7606
2023-03-11T08:04:45.513Z,50.98328
2023-03-11T08:09:47.077Z,51.39933
2023-03-11T08:14:48.518Z,48.2767
2023-03-11T08:19:50.015Z,47.7575
2023-03-11T08:24:51.570Z,48.39848
2023-03-11T08:29:53.003Z,46.52078
2023-03-11T08:34:54.612Z,49.34044
2023-03-11T08:39:56.151Z,48.00017
2023-03-11T08:44:57.693Z,44.20357
2023-03-11T08:49:59.221Z,49.06726
2023-03-11T08:55:00.707Z,44.68256
2023-03-11T09:00:02.214Z,40.01153
2023-03-11T09:05:03.740Z,43.95882
2023-03-11T09:10:05.171Z,44.36148
2023-03-11T09:15:06.659Z,44.21325
2023-03-11T09:20:08.220Z,39.74914
2023-03-11T09:25:09.836Z,42.84628
2023-03-11T09:30:11.354Z,41.21775
2023-03-11T09:35:12.842Z,38.31881
2023-03-11T09:40:14.356Z,39.21259
2023-03-11T09:45:15.898Z,38.31339
2023-03-11T09:50:17.340Z,37.80363
2023-03-11T09:55:18.898Z,40.07612
2023-03-11T10:00:20.412Z,36.25741
2023-03-11T10:05:22.048Z,39.00736
2023-03-11T10:10:23.587Z,38.21433
2023-03-11T10:15:25.110Z,39.03946
2023-03-11T10:20:26.765Z,35.56284
2023-03-11T10:25:28.234Z,34.01736
2023-03-11T10:30:30.416Z,33.73414
2023-03-11T10:35:31.948Z,34.83378
2023-03-11T10:40:33.597Z,33.7652
2023-03-11T10:45:35.130Z,30.46294
2023-03-11T10:50:36.922Z,33.86902
2023-03-11T10:55:38.438Z,32.8486
2023-03-11T11:00:39.940Z,34.34419
2023-03-11T11:05:41.436Z,34.51425
2023-03-11T11:10:42.942Z,33.63949
2023-03-11T11:15:44.489Z,34.56905
2023-03-11T11:20:46.035Z,31.46687
2023-03-11T11:25:47.669Z,30.99931
2023-03-11T11:30:49.320Z,33.59056
2023-03-11T11:35:50.978Z,32.44788
2023-03-11T11:40:52.514Z,32.60818
2023-03-11T11:45:53.989Z,33.59897
2023-03-11T11:50:55.499Z,34.02388
2023-03-11T11:55:56.937Z,35.69482
2023-03-11T12:00:58.425Z,33.92999
2023-03-11T12:05:59.959Z,34.46235
2023-03-11T12:11:01.535Z,33.48976
2023-03-11T12:16:03.062Z,30.52838
2023-03-11T12:21:04.539Z,28.738
2023-03-11T12:26:06.086Z,29.53454
2023-03-11T12:31:07.686Z,26.69283
2023-03-11T12:36:09.277Z,27.30462
2023-03-11T12:41:10.843Z,29.87775
2023-03-11T12:46:12.413Z,30.95163
2023-03-11T12:51:14.097Z,29.78423
2023-03-11T12:56:15.622Z,32.58319
2023-03-11T13:01:17.113Z,33.35165
2023-03-11T13:06:18.675Z,30.73925
2023-03-11T13:11:20.217Z,30.9134
2023-03-11T13:16:21.834Z,32.71181
2023-03-11T13:21:23.379Z,31.50086
2023-03-11T13:26:24.848Z,32.27119
2023-03-11T13:31:26.391Z,31.68858
2023-03-11T13:36:27.879Z,28.84714
2023-03-11T13:41:29.337Z,28.65081
2023-03-11T13:46:30.971Z,25.52785
2023-03-11T13:51:32.673Z,27.87018
2023-03-11T13:56:34.165Z,30.15963
2023-03-11T14:01:35.620Z,29.7125
2023-03-11T14:06:37.199Z,29.28853
2023-03-11T14:11:38.695Z,28.74702
2023-03-11T14:16:40.259Z,28.70679
2023-03-11T14:21:41.715Z,27.72239
2023-03-11T14:26:43.233Z,28.55974
2023-03-11T14:31:44.794Z,27.42278
2023-03-11T14:36:46.833Z,27.04521
2023-03-11T14:41:48.376Z,27.08946
2023-03-11T14:46:49.956Z,25.17989
2023-03-11T14:51:51.499Z,23.88766
2023-03-11T14:56:52.979Z,25.17738
2023-03-11T15:01:54.788Z,25.38797
2023-03-11T15:06:56.250Z,25.82839
2023-03-11T15:11:57.763Z,23.94792
2023-03-11T15:16:59.362Z,24.49006
2023-03-11T15:22:00.996Z,24.50586
2023-03-11T15:27:02.616Z,24.41586
2023-03-11T15:32:04.117Z,25.86222
2023-03-11T15:37:05.555Z,26.23298
2023-03-11T15:42:07.150Z,26.9763
2023-03-11T15:47:08.683Z,27.41799
2023-03-11T15:52:10.183Z,28.00408
2023-03-11T15:57:12.869Z,28.68418
2023-03-11T16:02:14.577Z,28.39279
2023-03-11T16:07:17.097Z,29.70746
2023-03-11T16:12:18.861Z,32.78845
2023-03-11T16:17:20.549Z,34.65304
2023-03-11T16:22:22.040Z,34.70588
2023-03-11T16:27:23.505Z,35.44185
2023-03-11T16:32:25.000Z,36.27325
2023-03-11T16:37:26.480Z,37.82492
2023-03-11T16:42:27.917Z,39.66302
2023-03-11T16:47:29.491Z,37.42667
2023-03-11T16:52:31.236Z,40.73062
2023-03-11T16:57:32.829Z,41.17556
2023-03-11T17:02:34.300Z,42.14338
2023-03-11T17:07:51.492Z,42.14777
2023-03-11T17:12:52.997Z,42.41774
2023-03-11T17:17:54.472Z,43.74674
2023-03-11T17:22:55.903Z,42.73084
2023-03-11T17:27:57.516Z,41.25652
2023-03-11T17:32:59.069Z,39.86419
2023-03-11T17:38:00.643Z,40.81595
2023-03-11T17:43:02.340Z,44.70887
2023-03-11T17:48:03.930Z,43.98401
2023-03-11T17:53:05.363Z,44.51703
2023-03-11T17:58:06.882Z,46.34074
2023-03-11T18:03:08.390Z,45.84087
2023-03-11T18:08:09.888Z,47.9329
2023-03-11T18:13:11.518Z,45.77538
2023-03-11T18:18:13.195Z,50.13017
2023-03-11T18:23:14.673Z,49.38153
2023-03-11T18:28:16.208Z,50.51359
2023-03-11T18:33:17.726Z,50.37528
2023-03-11T18:38:19.410Z,48.62308
2023-03-11T18:43:20.891Z,49.88212
2023-03-11T18:48:22.397Z,52.56441
2023-03-11T18:53:24.055Z,52.97236
2023-03-11T18:58:25.609Z,53.35822
2023-03-11T19:03:27.062Z,53.82462
2023-03-11T19:08:28.560Z,52.32554
2023-03-11T19:13:45.641Z,54.20893
2023-03-11T19:18:47.992Z,56.96122
2023-03-11T19:23:49.446Z,59.99386
2023-03-11T19:28:50.973Z,56.65989
2023-03-11T19:33:52.466Z,59.63747
2023-03-11T19:38:54.026Z,64.19836
2023-03-11T19:43:55.467Z,65.62736
2023-03-11T19:48:57.002Z,68.26056
2023-03-11T19:53:58.504Z,67.85257
2023-03-11T19:59:00.186Z,68.47752
2023-03-11T20:04:01.656Z,69.24575
2023-03-11T20:09:03.260Z,68.71971
2023-03-11T20:14:04.747Z,69.58843
2023-03-11T20:19:06.374Z,70.50895
2023-03-11T20:24:07.879Z,70.71714
2023-03-11T20:29:09.446Z,70.28299
2023-03-11T20:34:11.092Z,70.91342
2023-03-11T20:39:12.670Z,72.47645
2023-03-11T20:44:14.311Z,71.84698
2023-03-11T20:49:15.880Z,71.5695
2023-03-11T20:54:17.365Z,73.03818
2023-03-11T20:59:19.025Z,71.19491
2023-03-11T21:04:20.568Z,71.74195
2023-03-11T21:09:22.194Z,70.27064
2023-03-11T21:14:23.808Z,71.3451
2023-03-11T21:19:25.443Z,73.13731
2023-03-11T21:24:26.988Z,76.56126
2023-03-11T21:29:28.644Z,75.83418
2023-03-11T21:34:30.227Z,74.99447
2023-03-11T21:39:31.749Z,72.95241
2023-03-11T21:44:33.439Z,73.64635
2023-03-11T21:49:34.986Z,75.90183
2023-03-11T21:54:36.615Z,78.93255
2023-03-11T21:59:38.288Z,78.72687
2023-03-11T22:04:39.974Z,83.3088
2023-03-11T22:09:41.614Z,79.07317
2023-03-11T22:14:43.411Z,75.54935
2023-03-11T22:19:44.995Z,75.32687
2023-03-11T22:24:46.512Z,75.03673
2023-03-11T22:29:48.117Z,76.54438
2023-03-11T22:34:49.616Z,76.96625
2023-03-11T22:39:51.151Z,75.34102
2023-03-11T22:44:52.607Z,76.55534
2023-03-11T22:49:54.088Z,77.02351
2023-03-11T22:54:55.617Z,75.59084
2023-03-11T22:59:57.304Z,76.98146
2023-03-11T23:04:58.760Z,78.06651
2023-03-11T23:10:00.291Z,79.39555
2023-03-11T23:15:01.834Z,79.59703
2023-03-11T23:20:03.441Z,77.55977
2023-03-11T23:25:04.938Z,79.64777
2023-03-11T23:30:06.621Z,78.7086
2023-03-11T23:35:08.163Z,76.7105
2023-03-11T23:40:09.658Z,79.19718
2023-03-11T23:45:11.187Z,80.56856
2023-03-11T23:50:12.699Z,79.43444
2023-03-11T23:55:14.350Z,77.64343
